Time;durP1;ratioP1;P1;durP2;ratioP2;P2;SDS_P1;SDS_P2;PMS_P1;PMS_P2;Temp;Humidity;BMP_temperature;BMP_pressure;BME280_temperature;BME280_humidity;BME280_pressure;Samples;Min_cycle;Max_cycle;Signal;HPM_P1;HPM_P2
2022/01/15 00:01:33;;;;;;;8.95;4.97;;;0.80;99.90;;;;;;5019889;28;20407;-78
2022/01/15 00:03:59;;;;;;;12.32;5.22;;;0.80;99.90;;;;;;5018432;28;20080;-78
2022/01/15 00:06:25;;;;;;;10.65;5.32;;;0.80;99.90;;;;;;5020135;28;20382;-78
2022/01/15 00:08:50;;;;;;;10.27;4.57;;;0.80;99.90;;;;;;5003678;28;20038;-78
2022/01/15 00:11:16;;;;;;;9.38;5.38;;;0.70;99.90;;;;;;5021394;28;20040;-78
2022/01/15 00:13:44;;;;;;;7.75;4.43;;;0.70;99.90;;;;;;5022567;28;20107;-79
2022/01/15 00:16:14;;;;;;;10.82;6.38;;;0.80;99.90;;;;;;5023465;28;20029;-79
2022/01/15 00:19:32;;;;;;;10.23;4.95;;;0.80;99.90;;;;;;5014846;28;20022;-78
2022/01/15 00:21:29;;;;;;;8.13;4.47;;;0.80;99.90;;;;;;5021306;28;20108;-79
2022/01/15 00:23:54;;;;;;;8.05;5.07;;;0.80;99.90;;;;;;5036553;28;20030;-79
2022/01/15 00:26:20;;;;;;;10.48;5.90;;;0.80;99.90;;;;;;5019103;28;20017;-79
2022/01/15 00:28:46;;;;;;;10.50;5.43;;;0.80;99.90;;;;;;5034745;28;20038;-79
2022/01/15 00:31:12;;;;;;;7.63;4.93;;;0.80;99.90;;;;;;5021971;28;20041;-78
2022/01/15 00:33:37;;;;;;;7.35;4.22;;;0.80;99.90;;;;;;5000774;28;20029;-78
2022/01/15 00:36:04;;;;;;;9.18;5.75;;;0.80;99.90;;;;;;5020502;28;20029;-78
2022/01/15 00:38:29;;;;;;;10.38;5.65;;;0.80;99.90;;;;;;5002306;28;20030;-79
2022/01/15 00:40:55;;;;;;;10.15;4.90;;;0.70;99.90;;;;;;5021713;28;20128;-79
2022/01/15 00:43:21;;;;;;;9.85;5.38;;;0.70;99.90;;;;;;5019835;28;20022;-79
2022/01/15 00:45:47;;;;;;;9.88;5.30;;;0.70;99.90;;;;;;5020672;28;20387;-79
2022/01/15 00:48:13;;;;;;;9.65;5.75;;;0.70;99.90;;;;;;5012189;28;20046;-79
2022/01/15 00:50:39;;;;;;;10.20;5.03;;;0.70;99.90;;;;;;5020288;28;20026;-79
2022/01/15 00:53:05;;;;;;;9.13;4.95;;;0.70;99.90;;;;;;5019151;28;20053;-79
2022/01/15 00:55:31;;;;;;;9.82;4.90;;;0.60;99.90;;;;;;5023655;28;20057;-79
2022/01/15 00:57:56;;;;;;;8.25;5.28;;;0.70;99.90;;;;;;5032565;28;20018;-78
2022/01/15 01:00:24;;;;;;;9.00;4.90;;;0.60;99.90;;;;;;5016466;28;20033;-77
2022/01/15 01:02:50;;;;;;;10.75;5.30;;;0.60;99.90;;;;;;5033041;28;20028;-79
2022/01/15 01:05:17;;;;;;;15.43;6.28;;;0.60;99.90;;;;;;5037294;28;20026;-79
2022/01/15 01:07:43;;;;;;;14.63;6.28;;;0.50;99.90;;;;;;5031433;28;20026;-77
2022/01/15 01:23:16;;;;;;;12.15;6.47;;;0.50;99.90;;;;;;5029684;28;20025;-79
2022/01/15 01:25:45;;;;;;;10.75;5.32;;;0.50;99.90;;;;;;5024146;28;20036;-79
2022/01/15 01:28:23;;;;;;;10.20;5.78;;;0.50;99.90;;;;;;5027967;28;20026;-79
2022/01/15 01:33:31;;;;;;;9.88;5.13;;;0.40;99.90;;;;;;5020004;28;20074;-78
2022/01/15 01:39:13;;;;;;;10.68;5.25;;;0.40;99.90;;;;;;5016051;28;20030;-79
2022/01/15 01:41:35;;;;;;;10.55;5.53;;;0.30;99.90;;;;;;5010362;28;20045;-78
2022/01/15 01:44:03;;;;;;;11.65;5.78;;;0.30;99.90;;;;;;5016837;28;20040;-79
2022/01/15 01:48:57;;;;;;;9.70;5.88;;;0.30;99.90;;;;;;5007830;28;20029;-79
2022/01/15 01:51:29;;;;;;;9.73;4.82;;;0.30;99.90;;;;;;4997450;28;20135;-78
2022/01/15 01:53:56;;;;;;;9.85;5.65;;;0.30;99.90;;;;;;5016563;28;20033;-78
2022/01/15 01:56:23;;;;;;;11.30;5.05;;;0.30;99.90;;;;;;5014472;28;20037;-78
2022/01/15 01:58:49;;;;;;;10.50;5.75;;;0.20;99.90;;;;;;5014174;28;20518;-78
2022/01/15 02:01:14;;;;;;;9.23;5.22;;;0.20;99.90;;;;;;5014629;28;20025;-78
2022/01/15 02:03:40;;;;;;;9.23;5.72;;;0.20;99.90;;;;;;5014835;28;20022;-77
2022/01/15 02:06:06;;;;;;;8.23;4.90;;;0.20;99.90;;;;;;5016048;28;20033;-79
2022/01/15 02:08:36;;;;;;;10.70;5.28;;;0.20;99.90;;;;;;5013507;28;20548;-79
2022/01/15 02:11:04;;;;;;;10.00;4.90;;;0.20;99.90;;;;;;5014711;28;20517;-78
2022/01/15 02:13:31;;;;;;;9.40;5.07;;;0.20;99.90;;;;;;5018314;28;20022;-79
2022/01/15 02:15:59;;;;;;;11.15;5.35;;;0.20;99.90;;;;;;5018845;28;20026;-79
2022/01/15 02:18:25;;;;;;;11.68;5.85;;;0.20;99.90;;;;;;5009795;28;20026;-78
2022/01/15 02:23:32;;;;;;;11.30;5.80;;;0.20;99.90;;;;;;5018581;28;20024;-79
2022/01/15 02:23:49;;;;;;;9.27;4.93;;;0.10;99.90;;;;;;5018626;28;20031;-79
2022/01/15 02:26:17;;;;;;;10.88;5.32;;;0.10;99.90;;;;;;5002369;28;20049;-78
2022/01/15 02:29:01;;;;;;;10.45;5.40;;;0.10;99.90;;;;;;5017922;28;20038;-79
2022/01/15 02:31:29;;;;;;;10.35;5.43;;;0.10;99.90;;;;;;5019978;28;20054;-78
2022/01/15 02:33:56;;;;;;;10.73;5.20;;;0.10;99.90;;;;;;5019016;28;20030;-79
2022/01/15 02:36:25;;;;;;;10.68;5.00;;;0.10;99.90;;;;;;5021834;28;20029;-79
2022/01/15 02:38:52;;;;;;;10.50;5.55;;;0.00;99.90;;;;;;5027177;28;20018;-79
2022/01/15 02:41:26;;;;;;;10.68;5.60;;;0.00;99.90;;;;;;5022016;28;20025;-78
2022/01/15 02:43:52;;;;;;;9.50;5.40;;;0.00;99.90;;;;;;5004378;28;20497;-79
2022/01/15 02:49:04;;;;;;;14.30;6.63;;;0.00;99.90;;;;;;5016702;28;20069;-79
2022/01/15 02:51:35;;;;;;;11.10;5.72;;;0.00;99.90;;;;;;5025862;28;20125;-79
2022/01/15 02:54:02;;;;;;;9.32;5.20;;;0.00;99.90;;;;;;5025994;28;20057;-78
2022/01/15 02:56:32;;;;;;;9.65;5.18;;;-0.10;99.90;;;;;;5023279;28;20470;-79
2022/01/15 02:58:58;;;;;;;9.55;5.22;;;-0.10;99.90;;;;;;5022492;28;20018;-79
2022/01/15 03:01:24;;;;;;;11.63;5.82;;;0.00;99.90;;;;;;5023606;28;20029;-79
2022/01/15 03:03:50;;;;;;;9.57;5.20;;;-0.10;99.90;;;;;;5024652;28;20025;-79
2022/01/15 03:06:18;;;;;;;9.77;4.53;;;-0.10;99.90;;;;;;5023648;28;20029;-80
2022/01/15 03:08:45;;;;;;;7.38;4.38;;;0.00;99.90;;;;;;5039716;28;20034;-79
2022/01/15 03:11:12;;;;;;;8.52;4.70;;;-0.10;99.90;;;;;;5027748;28;20038;-79
2022/01/15 03:13:40;;;;;;;8.25;4.53;;;-0.10;99.90;;;;;;5021966;28;20104;-79
2022/01/15 03:16:07;;;;;;;9.48;4.82;;;-0.10;99.90;;;;;;5020310;28;20536;-79
2022/01/15 03:18:33;;;;;;;9.40;5.18;;;-0.10;99.90;;;;;;5012840;28;20041;-78
2022/01/15 03:20:59;;;;;;;9.13;4.95;;;-0.10;99.90;;;;;;5021763;28;20422;-79
2022/01/15 03:23:24;;;;;;;8.93;5.75;;;-0.10;99.90;;;;;;5022062;28;20041;-79
2022/01/15 03:25:50;;;;;;;8.23;5.15;;;-0.10;99.90;;;;;;5003486;28;20041;-79
2022/01/15 03:28:16;;;;;;;10.02;4.97;;;-0.20;99.90;;;;;;5022294;28;20030;-79
2022/01/15 03:30:42;;;;;;;12.23;5.22;;;-0.20;99.90;;;;;;5020840;28;20030;-78
2022/01/15 03:33:08;;;;;;;9.60;5.07;;;-0.20;99.90;;;;;;5010779;28;20166;-77
2022/01/15 03:35:35;;;;;;;9.18;5.22;;;-0.20;99.90;;;;;;5033301;28;20116;-78
2022/01/15 03:38:01;;;;;;;9.75;5.15;;;-0.30;99.90;;;;;;5025340;28;20088;-78
2022/01/15 03:40:27;;;;;;;10.00;5.47;;;-0.30;99.90;;;;;;5023514;28;20029;-78
2022/01/15 03:42:53;;;;;;;7.63;4.82;;;-0.30;99.90;;;;;;5016610;28;20029;-78
2022/01/15 03:45:19;;;;;;;10.70;5.18;;;-0.30;99.90;;;;;;5016427;28;20120;-78
2022/01/15 03:47:45;;;;;;;7.75;4.82;;;-0.40;99.90;;;;;;4992823;28;20027;-78
2022/01/15 03:50:13;;;;;;;8.45;4.60;;;-0.40;99.90;;;;;;4996103;28;20025;-78
2022/01/15 03:52:38;;;;;;;8.98;4.45;;;-0.40;99.90;;;;;;4999870;28;20471;-78
2022/01/15 03:55:06;;;;;;;8.23;4.25;;;-0.40;99.90;;;;;;5015279;28;20025;-78
2022/01/15 03:57:32;;;;;;;7.05;4.43;;;-0.40;99.90;;;;;;5015603;28;20054;-78
2022/01/15 04:00:00;;;;;;;9.40;4.75;;;-0.50;99.90;;;;;;5016359;28;20080;-78
2022/01/15 04:02:26;;;;;;;7.63;4.20;;;-0.50;99.90;;;;;;5018709;28;20022;-78
2022/01/15 04:04:52;;;;;;;9.18;5.20;;;-0.40;99.90;;;;;;5015735;28;20064;-78
2022/01/15 04:07:18;;;;;;;7.40;3.90;;;-0.40;99.90;;;;;;5000059;28;20026;-79
2022/01/15 04:09:43;;;;;;;7.90;4.03;;;-0.40;99.90;;;;;;5019557;28;20034;-78
2022/01/15 04:12:09;;;;;;;8.60;4.55;;;-0.40;99.90;;;;;;5023932;28;20030;-78
2022/01/15 04:14:35;;;;;;;7.65;4.55;;;-0.40;99.90;;;;;;5023988;28;20033;-78
2022/01/15 04:17:01;;;;;;;9.38;4.05;;;-0.40;99.90;;;;;;5020613;28;20475;-79
2022/01/15 04:19:28;;;;;;;7.18;3.65;;;-0.40;99.90;;;;;;5008627;28;20106;-78
2022/01/15 04:21:54;;;;;;;6.22;3.95;;;-0.40;99.90;;;;;;5015145;28;20387;-77
2022/01/15 04:24:20;;;;;;;7.65;3.65;;;-0.40;99.90;;;;;;5021444;28;20026;-79
2022/01/15 04:26:48;;;;;;;7.38;4.55;;;-0.40;99.90;;;;;;5033667;28;20041;-78
2022/01/15 04:29:15;;;;;;;8.95;3.63;;;-0.40;99.90;;;;;;5008653;28;20045;-79
2022/01/15 04:31:48;;;;;;;7.80;3.75;;;-0.40;99.90;;;;;;5019638;28;20030;-79
2022/01/15 04:34:25;;;;;;;8.35;4.63;;;-0.40;99.90;;;;;;5005735;28;20037;-79
2022/01/15 04:36:52;;;;;;;8.10;3.90;;;-0.50;99.90;;;;;;5007965;28;20026;-78
2022/01/15 04:39:18;;;;;;;7.75;3.95;;;-0.50;99.90;;;;;;5029035;28;20026;-78
2022/01/15 04:41:44;;;;;;;6.82;3.92;;;-0.50;99.90;;;;;;5030104;28;20034;-76
2022/01/15 04:44:10;;;;;;;8.98;4.55;;;-0.50;99.90;;;;;;5024001;28;20040;-78
2022/01/15 04:46:38;;;;;;;8.30;4.57;;;-0.50;99.90;;;;;;5022017;28;20037;-78
2022/01/15 04:49:04;;;;;;;7.72;4.43;;;-0.50;99.90;;;;;;5012633;28;20042;-79
2022/01/15 04:51:30;;;;;;;8.05;4.32;;;-0.50;99.90;;;;;;5000588;28;20038;-77
2022/01/15 04:53:56;;;;;;;7.63;4.00;;;-0.50;99.90;;;;;;4998372;28;20094;-78
2022/01/15 04:56:22;;;;;;;7.10;4.00;;;-0.50;99.90;;;;;;4997434;28;20041;-77
2022/01/15 04:58:49;;;;;;;8.88;4.32;;;-0.40;99.90;;;;;;4994281;28;20472;-78
2022/01/15 05:01:14;;;;;;;7.05;4.43;;;-0.40;99.90;;;;;;4995429;28;20415;-78
2022/01/15 05:03:40;;;;;;;7.40;4.75;;;-0.50;99.90;;;;;;4995388;28;20113;-77
2022/01/15 05:06:06;;;;;;;11.38;5.10;;;-0.50;99.90;;;;;;4994911;28;20104;-78
2022/01/15 05:08:32;;;;;;;10.68;5.13;;;-0.50;99.90;;;;;;4995105;28;20034;-79
2022/01/15 05:11:00;;;;;;;11.63;5.28;;;-0.50;99.90;;;;;;4998231;28;20026;-78
2022/01/15 05:13:30;;;;;;;11.02;5.75;;;-0.50;99.90;;;;;;5016543;28;20019;-79
2022/01/15 05:15:55;;;;;;;13.52;6.03;;;-0.50;99.90;;;;;;5008124;28;20226;-78
2022/01/15 05:18:21;;;;;;;9.98;5.28;;;-0.50;99.90;;;;;;4988187;28;20030;-77
2022/01/15 05:20:47;;;;;;;8.88;4.60;;;-0.60;99.90;;;;;;5016190;28;20036;-78
2022/01/15 05:23:13;;;;;;;10.23;5.57;;;-0.60;99.90;;;;;;4998481;28;20037;-78
2022/01/15 05:25:39;;;;;;;10.85;5.22;;;-0.60;99.90;;;;;;5036124;28;20021;-78
2022/01/15 05:28:07;;;;;;;10.27;5.97;;;-0.60;99.90;;;;;;5044635;22;20030;-79
2022/01/15 05:30:33;;;;;;;10.02;5.22;;;-0.60;99.90;;;;;;5015748;28;20132;-78
2022/01/15 05:32:59;;;;;;;9.70;5.70;;;-0.60;99.90;;;;;;5015557;28;20026;-78
2022/01/15 05:35:27;;;;;;;10.88;5.65;;;-0.60;99.90;;;;;;5014696;28;20049;-79
2022/01/15 05:37:57;;;;;;;11.48;5.68;;;-0.60;99.90;;;;;;5016149;28;20080;-79
2022/01/15 05:40:24;;;;;;;11.55;5.88;;;-0.70;99.90;;;;;;4996147;28;20119;-79
2022/01/15 05:42:51;;;;;;;9.63;5.32;;;-0.70;99.90;;;;;;4981315;28;20065;-80
2022/01/15 05:45:17;;;;;;;10.93;5.15;;;-0.70;99.90;;;;;;4996324;28;20418;-80
2022/01/15 05:47:43;;;;;;;9.52;5.97;;;-0.80;99.90;;;;;;4998124;28;20085;-80
2022/01/15 05:50:09;;;;;;;15.30;6.05;;;-0.80;99.90;;;;;;4996920;28;20148;-79
2022/01/15 05:52:35;;;;;;;10.73;5.78;;;-0.80;99.90;;;;;;4995948;28;20045;-79
2022/01/15 05:55:00;;;;;;;12.85;6.78;;;-0.90;99.90;;;;;;4996625;28;20118;-79
2022/01/15 05:57:26;;;;;;;14.10;6.97;;;-0.80;99.90;;;;;;4980853;28;20030;-78
2022/01/15 05:59:52;;;;;;;11.25;6.20;;;-0.80;99.90;;;;;;4978977;28;20113;-80
2022/01/15 06:02:19;;;;;;;12.07;6.68;;;-0.90;99.90;;;;;;4996224;28;20513;-80
2022/01/15 06:04:45;;;;;;;12.68;7.18;;;-0.90;99.90;;;;;;4977893;28;20033;-79
2022/01/15 06:07:11;;;;;;;11.65;6.72;;;-0.80;99.90;;;;;;4994414;28;20387;-79
2022/01/15 06:09:37;;;;;;;16.90;7.45;;;-0.80;99.90;;;;;;4994144;28;20042;-79
2022/01/15 06:12:03;;;;;;;14.05;6.75;;;-0.90;99.90;;;;;;4977404;28;20085;-80
2022/01/15 06:14:32;;;;;;;13.88;6.63;;;-1.00;99.90;;;;;;4995847;28;20041;-81
2022/01/15 06:16:59;;;;;;;13.10;6.70;;;-1.10;99.90;;;;;;4994801;28;20102;-78
2022/01/15 06:19:25;;;;;;;14.32;6.85;;;-1.30;99.90;;;;;;4993021;28;20062;-79
2022/01/15 06:21:51;;;;;;;13.95;6.72;;;-1.30;99.90;;;;;;4979130;28;20084;-80
2022/01/15 06:24:17;;;;;;;12.68;6.47;;;-1.40;99.90;;;;;;4996230;28;20085;-80
2022/01/15 06:26:43;;;;;;;13.75;6.45;;;-1.40;99.90;;;;;;4994360;28;20407;-81
2022/01/15 06:29:09;;;;;;;11.10;6.43;;;-1.50;99.90;;;;;;4976245;28;20085;-80
2022/01/15 06:31:35;;;;;;;15.63;6.68;;;-1.50;99.90;;;;;;4994145;28;20031;-79
2022/01/15 06:34:01;;;;;;;12.18;6.95;;;-1.60;99.90;;;;;;4994640;28;20033;-79
2022/01/15 06:36:27;;;;;;;14.27;6.35;;;-1.60;99.90;;;;;;4994231;28;20030;-79
2022/01/15 06:38:53;;;;;;;13.38;6.75;;;-1.70;99.90;;;;;;4993836;28;20420;-78
2022/01/15 06:41:19;;;;;;;15.50;7.63;;;-1.70;99.90;;;;;;4993226;28;20497;-78
2022/01/15 06:43:45;;;;;;;14.07;7.35;;;-1.70;99.90;;;;;;4993929;28;20440;-79
2022/01/15 06:46:10;;;;;;;13.68;7.45;;;-1.70;99.90;;;;;;4994852;28;20061;-80
2022/01/15 06:48:36;;;;;;;14.43;7.57;;;-1.70;99.90;;;;;;4996756;28;20041;-79
2022/01/15 06:51:04;;;;;;;14.60;7.63;;;-1.70;99.90;;;;;;4978861;28;20129;-79
2022/01/15 06:53:29;;;;;;;12.43;7.05;;;-1.60;99.90;;;;;;4997148;28;20027;-79
2022/01/15 06:55:56;;;;;;;13.48;7.45;;;-1.60;99.90;;;;;;4995718;28;20037;-80
2022/01/15 06:58:23;;;;;;;14.88;7.95;;;-1.60;99.90;;;;;;4995944;28;20420;-81
2022/01/15 07:00:49;;;;;;;13.50;6.97;;;-1.50;99.90;;;;;;4977850;28;20071;-80
2022/01/15 07:03:15;;;;;;;16.45;8.50;;;-1.40;99.90;;;;;;4976903;28;20058;-80
2022/01/15 07:05:41;;;;;;;13.68;7.47;;;-1.40;99.90;;;;;;4995502;28;20586;-78
2022/01/15 07:08:07;;;;;;;15.43;8.00;;;-1.40;99.90;;;;;;5012847;28;20035;-79
2022/01/15 07:10:33;;;;;;;12.60;7.43;;;-1.20;99.90;;;;;;5014123;28;20093;-79
2022/01/15 07:12:59;;;;;;;13.70;7.10;;;-1.20;99.90;;;;;;4997979;28;20049;-79
2022/01/15 07:15:25;;;;;;;14.50;7.82;;;-1.10;99.90;;;;;;5014773;28;20030;-80
2022/01/15 07:17:51;;;;;;;14.30;7.78;;;-1.00;99.90;;;;;;5014401;28;20014;-79
2022/01/15 07:20:18;;;;;;;15.63;8.27;;;-1.00;99.90;;;;;;5008370;28;20031;-79
2022/01/15 07:22:44;;;;;;;16.27;9.00;;;-0.90;99.90;;;;;;4999549;28;20065;-79
2022/01/15 07:25:11;;;;;;;18.08;9.63;;;-0.80;99.90;;;;;;4981090;28;20026;-79
2022/01/15 07:27:38;;;;;;;15.00;7.95;;;-0.80;99.90;;;;;;4997584;28;20030;-80
2022/01/15 07:30:06;;;;;;;15.02;8.18;;;-0.70;99.90;;;;;;4979049;28;20042;-78
2022/01/15 07:32:32;;;;;;;15.45;8.00;;;-0.60;99.90;;;;;;4997070;28;20086;-78
2022/01/15 07:34:58;;;;;;;12.88;7.22;;;-0.50;99.90;;;;;;4997178;28;20069;-79
2022/01/15 07:37:24;;;;;;;14.38;7.43;;;-0.50;99.90;;;;;;4997188;28;20446;-79
2022/01/15 07:39:50;;;;;;;15.80;8.30;;;-0.50;99.90;;;;;;4979889;28;20034;-79
2022/01/15 07:42:16;;;;;;;14.05;7.32;;;-0.50;99.90;;;;;;4998868;28;20030;-77
2022/01/15 07:44:42;;;;;;;13.40;7.57;;;-0.40;99.90;;;;;;4998871;28;20060;-78
2022/01/15 07:47:08;;;;;;;13.48;7.47;;;-0.40;99.90;;;;;;4996521;28;20034;-80
2022/01/15 07:49:34;;;;;;;14.57;8.40;;;-0.40;99.90;;;;;;4995832;28;20046;-78
2022/01/15 07:52:01;;;;;;;13.07;8.02;;;-0.50;99.90;;;;;;4982185;28;20049;-78
2022/01/15 07:54:26;;;;;;;15.48;8.98;;;-0.50;99.90;;;;;;5000253;28;20035;-79
2022/01/15 07:56:55;;;;;;;16.27;8.75;;;-0.50;99.90;;;;;;4996850;28;20130;-79
2022/01/15 07:59:22;;;;;;;13.38;7.80;;;-0.40;99.90;;;;;;5004125;28;20018;-79
2022/01/15 08:01:48;;;;;;;13.20;7.97;;;-0.30;99.90;;;;;;4983995;28;20026;-79
2022/01/15 08:04:13;;;;;;;12.18;7.13;;;-0.20;99.90;;;;;;4998448;28;20038;-79
2022/01/15 08:06:41;;;;;;;13.05;7.72;;;-0.10;99.90;;;;;;4997330;28;20088;-79
2022/01/15 08:09:06;;;;;;;11.77;7.20;;;-0.10;99.90;;;;;;4978381;28;20085;-79
2022/01/15 08:11:33;;;;;;;11.40;6.95;;;0.00;99.90;;;;;;5002098;28;20022;-80
2022/01/15 08:13:59;;;;;;;10.63;6.88;;;0.00;99.90;;;;;;5000784;28;20034;-79
2022/01/15 08:16:25;;;;;;;14.23;7.38;;;0.00;99.90;;;;;;4996869;28;20078;-80
2022/01/15 08:18:51;;;;;;;15.70;8.20;;;-0.10;99.90;;;;;;4999345;28;20392;-79
2022/01/15 08:21:16;;;;;;;15.73;8.13;;;-0.20;99.90;;;;;;4998748;28;20069;-78
2022/01/15 08:23:42;;;;;;;12.88;7.85;;;-0.30;99.90;;;;;;4981770;28;20077;-81
2022/01/15 08:26:08;;;;;;;14.30;9.02;;;-0.40;99.90;;;;;;4981870;28;20041;-80
2022/01/15 08:28:34;;;;;;;14.38;8.65;;;-0.40;99.90;;;;;;4999054;28;20109;-80
2022/01/15 08:31:00;;;;;;;19.38;9.25;;;-0.40;99.90;;;;;;4998353;28;20061;-79
2022/01/15 08:33:26;;;;;;;15.00;8.52;;;-0.40;99.90;;;;;;4998476;28;20033;-79
2022/01/15 08:35:52;;;;;;;13.30;8.30;;;-0.40;99.90;;;;;;4999435;28;20046;-81
2022/01/15 08:38:17;;;;;;;13.85;8.48;;;-0.40;99.90;;;;;;4997646;28;20030;-80
2022/01/15 08:40:43;;;;;;;14.52;8.18;;;-0.30;99.90;;;;;;4996873;28;20026;-81
2022/01/15 08:43:09;;;;;;;15.20;7.97;;;-0.30;99.90;;;;;;4998499;28;20033;-80
2022/01/15 08:45:38;;;;;;;12.40;7.75;;;-0.20;99.90;;;;;;4997752;28;20026;-81
2022/01/15 08:48:04;;;;;;;15.13;9.20;;;0.00;99.90;;;;;;4997268;28;20065;-81
2022/01/15 08:50:30;;;;;;;13.27;8.93;;;0.00;99.90;;;;;;4980906;28;20089;-80
2022/01/15 08:52:55;;;;;;;16.88;8.35;;;0.00;99.90;;;;;;4980368;28;20041;-79
2022/01/15 08:55:21;;;;;;;13.65;7.72;;;0.10;99.90;;;;;;4997597;28;20065;-80
2022/01/15 08:57:47;;;;;;;11.50;7.03;;;0.20;99.90;;;;;;4997065;28;20494;-80
2022/01/15 09:00:16;;;;;;;13.45;7.47;;;0.40;99.90;;;;;;4978295;28;20171;-80
2022/01/15 09:02:42;;;;;;;11.35;7.38;;;0.70;99.90;;;;;;4997261;28;20077;-79
2022/01/15 09:05:08;;;;;;;13.02;7.40;;;0.90;99.90;;;;;;4978852;28;20111;-79
2022/01/15 09:07:35;;;;;;;14.40;8.68;;;1.20;99.90;;;;;;4979399;28;20026;-79
2022/01/15 09:10:00;;;;;;;11.98;7.28;;;1.40;99.90;;;;;;4998347;28;20032;-80
2022/01/15 09:12:26;;;;;;;10.95;7.00;;;1.60;99.90;;;;;;4996507;28;20045;-80
2022/01/15 09:14:54;;;;;;;11.10;6.93;;;1.80;99.90;;;;;;5004640;28;20101;-79
2022/01/15 09:17:20;;;;;;;10.60;6.93;;;1.90;99.90;;;;;;4998944;28;20019;-80
2022/01/15 09:19:46;;;;;;;13.75;8.20;;;1.80;99.90;;;;;;4998750;28;20494;-79
2022/01/15 09:22:18;;;;;;;12.18;7.32;;;1.70;99.90;;;;;;4998080;28;20125;-80
2022/01/15 09:24:45;;;;;;;12.25;7.50;;;1.70;99.90;;;;;;5001093;28;20027;-79
2022/01/15 09:32:45;;;;;;;13.05;8.73;;;1.30;99.90;;;;;;4999336;28;20038;-79
2022/01/15 09:35:13;;;;;;;14.50;9.35;;;1.10;99.90;;;;;;4998395;28;20030;-80
2022/01/15 09:37:39;;;;;;;14.90;10.82;;;1.00;99.90;;;;;;5001203;28;20030;-80
2022/01/15 09:40:06;;;;;;;15.48;9.38;;;0.80;99.90;;;;;;4980533;28;20026;-79
2022/01/15 09:42:33;;;;;;;16.45;9.48;;;0.60;99.90;;;;;;5000807;28;20042;-80
2022/01/15 09:44:59;;;;;;;11.98;8.32;;;0.50;99.90;;;;;;4979226;28;20038;-80
2022/01/15 09:47:26;;;;;;;12.05;8.30;;;0.50;99.90;;;;;;5000052;28;20033;-80
2022/01/15 09:49:53;;;;;;;11.95;7.88;;;0.50;99.90;;;;;;4981048;28;20026;-80
2022/01/15 09:52:20;;;;;;;10.63;7.35;;;0.70;99.90;;;;;;4982664;28;20030;-80
2022/01/15 09:54:46;;;;;;;13.32;8.40;;;0.90;99.90;;;;;;4999726;28;20113;-80
2022/01/15 09:57:12;;;;;;;17.80;10.40;;;1.00;99.90;;;;;;5001841;28;20030;-78
2022/01/15 09:59:37;;;;;;;15.73;9.93;;;1.00;99.90;;;;;;5000420;28;20030;-80
2022/01/15 10:02:05;;;;;;;16.33;9.77;;;1.00;99.90;;;;;;4983469;28;20122;-80
2022/01/15 10:04:35;;;;;;;14.80;9.27;;;1.00;99.90;;;;;;5002469;28;20105;-80
2022/01/15 10:07:27;;;;;;;18.05;9.63;;;1.10;99.90;;;;;;4980983;28;20053;-80
2022/01/15 10:09:55;;;;;;;19.55;11.35;;;1.20;99.90;;;;;;4979581;28;20123;-79
2022/01/15 10:12:31;;;;;;;15.15;10.25;;;1.10;99.90;;;;;;4997282;28;20038;-78
2022/01/15 10:15:04;;;;;;;16.88;10.60;;;0.90;99.90;;;;;;4994936;28;20030;-80
2022/01/15 10:17:35;;;;;;;19.70;12.23;;;1.10;99.90;;;;;;4996704;28;20015;-81
2022/01/15 10:20:14;;;;;;;19.02;12.63;;;1.20;99.90;;;;;;4979642;28;20022;-78
2022/01/15 10:22:45;;;;;;;21.50;12.70;;;1.20;99.90;;;;;;4996566;28;20439;-78
2022/01/15 10:25:18;;;;;;;26.73;15.05;;;1.10;99.90;;;;;;4978362;28;20026;-79
2022/01/15 10:27:54;;;;;;;29.20;15.27;;;1.00;99.90;;;;;;4995802;28;20395;-79
2022/01/15 10:30:27;;;;;;;25.75;15.23;;;0.90;99.90;;;;;;4980292;28;20034;-80
2022/01/15 10:33:01;;;;;;;26.60;15.32;;;0.80;99.90;;;;;;4996921;28;20022;-81
2022/01/15 10:35:39;;;;;;;25.02;14.80;;;0.80;99.90;;;;;;4996295;28;20096;-79
2022/01/15 10:38:16;;;;;;;28.70;16.30;;;0.90;99.90;;;;;;4978431;28;20027;-80
2022/01/15 10:40:43;;;;;;;33.67;17.33;;;1.00;99.90;;;;;;4978045;28;20423;-80
2022/01/15 10:43:11;;;;;;;31.48;16.15;;;1.00;99.90;;;;;;4996624;28;20147;-80
2022/01/15 10:45:58;;;;;;;28.83;15.13;;;1.00;99.90;;;;;;4980925;28;20026;-78
2022/01/15 10:48:33;;;;;;;31.90;16.70;;;1.00;99.90;;;;;;4981149;28;20073;-80
2022/01/15 10:51:14;;;;;;;23.23;14.40;;;1.00;99.90;;;;;;4985048;28;20077;-79
2022/01/15 10:53:52;;;;;;;24.08;12.93;;;1.00;99.90;;;;;;5000703;28;20023;-78
2022/01/15 10:56:18;;;;;;;22.02;12.80;;;0.90;99.90;;;;;;5004424;28;20066;-79
2022/01/15 10:58:46;;;;;;;23.70;12.52;;;0.90;99.90;;;;;;4986211;28;20022;-79
2022/01/15 11:01:37;;;;;;;;;;;;;;;;;;;;;
2022/01/15 11:04:32;;;;;;;18.98;10.55;;;1.00;99.90;;;;;;5012298;28;20048;-82
2022/01/15 11:07:13;;;;;;;21.63;11.27;;;1.00;99.90;;;;;;4979492;28;20332;-82
2022/01/15 11:09:42;;;;;;;20.48;10.88;;;0.90;99.90;;;;;;4993175;28;20014;-81
2022/01/15 11:12:12;;;;;;;26.20;12.18;;;1.00;99.90;;;;;;4997498;28;20037;-81
2022/01/15 11:14:39;;;;;;;20.33;11.30;;;1.00;99.90;;;;;;5000787;28;20095;-81
2022/01/15 11:17:06;;;;;;;21.92;11.77;;;1.00;99.90;;;;;;5014628;28;20221;-81
2022/01/15 11:19:35;;;;;;;21.88;12.10;;;1.00;99.90;;;;;;4999271;28;20030;-81
2022/01/15 11:22:05;;;;;;;21.10;11.50;;;1.00;99.90;;;;;;4999600;28;20014;-82
2022/01/15 11:24:31;;;;;;;24.48;12.30;;;1.10;99.90;;;;;;5011312;28;20065;-80
2022/01/15 11:27:00;;;;;;;24.17;12.43;;;1.30;99.90;;;;;;4995522;28;20026;-81
2022/01/15 11:29:27;;;;;;;24.20;12.85;;;1.50;99.90;;;;;;4994593;28;20442;-78
2022/01/15 11:31:56;;;;;;;22.45;12.30;;;1.40;99.90;;;;;;4997088;28;20037;-80
2022/01/15 11:34:27;;;;;;;23.55;13.23;;;1.30;99.90;;;;;;5014903;28;20027;-80
2022/01/15 11:36:54;;;;;;;22.17;12.15;;;1.20;99.90;;;;;;4996964;28;20019;-80
2022/01/15 11:39:33;;;;;;;24.95;13.15;;;1.20;99.90;;;;;;5012869;28;20395;-82
2022/01/15 11:42:04;;;;;;;22.15;11.98;;;1.30;99.90;;;;;;5009933;28;20439;-80
2022/01/15 11:44:36;;;;;;;19.90;12.18;;;1.40;99.90;;;;;;5005947;28;20053;-81
2022/01/15 11:47:27;;;;;;;17.58;10.63;;;1.70;99.90;;;;;;5006155;28;20038;-80
2022/01/15 11:49:57;;;;;;;26.38;13.10;;;1.90;99.90;;;;;;4967802;28;20038;-79
2022/01/15 11:52:26;;;;;;;24.98;13.20;;;1.90;99.90;;;;;;4985442;28;20031;-81
2022/01/15 11:54:54;;;;;;;25.83;12.10;;;1.90;99.90;;;;;;4969060;28;20109;-80
2022/01/15 11:58:26;;;;;;;;;;;;;;;;;;;;;
2022/01/15 12:00:25;;;;;;;22.17;11.95;;;2.10;99.90;;;;;;4987134;28;20029;-81
2022/01/15 12:03:02;;;;;;;25.48;12.80;;;2.20;99.90;;;;;;4999014;28;20018;-81
2022/01/15 12:05:33;;;;;;;26.67;13.95;;;2.10;99.90;;;;;;4978322;28;20027;-80
2022/01/15 12:07:59;;;;;;;27.90;14.57;;;2.00;99.90;;;;;;4993240;28;20043;-79
2022/01/15 12:10:43;;;;;;;26.20;13.57;;;1.90;99.90;;;;;;4994943;28;20037;-79
2022/01/15 12:13:27;;;;;;;31.30;14.43;;;1.80;99.90;;;;;;4990673;28;20031;-79
2022/01/15 12:16:21;;;;;;;22.83;11.48;;;1.80;99.90;;;;;;4992339;28;20463;-78
2022/01/15 12:18:51;;;;;;;27.50;12.55;;;2.10;99.90;;;;;;5004226;28;20395;-79
2022/01/15 12:21:44;;;;;;;27.73;13.80;;;2.20;99.90;;;;;;5009291;28;20412;-79
2022/01/15 12:24:36;;;;;;;28.85;14.45;;;2.20;99.90;;;;;;5003911;28;20491;-79
2022/01/15 12:27:04;;;;;;;32.87;15.00;;;2.20;99.90;;;;;;5003572;28;20037;-79
2022/01/15 12:29:30;;;;;;;32.13;17.05;;;2.10;99.90;;;;;;5000399;28;20280;-80
2022/01/15 12:31:56;;;;;;;31.85;15.90;;;2.20;99.90;;;;;;4998333;28;20030;-80
2022/01/15 12:34:26;;;;;;;25.88;13.50;;;2.20;99.90;;;;;;5000136;28;20380;-79
2022/01/15 12:36:52;;;;;;;23.00;12.15;;;2.20;99.90;;;;;;5001803;28;20002;-80
2022/01/15 12:39:39;;;;;;;23.90;12.65;;;2.30;99.90;;;;;;5012148;28;20045;-79
2022/01/15 12:42:06;;;;;;;21.17;11.20;;;2.40;99.90;;;;;;5009966;28;20041;-78
2022/01/15 12:44:47;;;;;;;22.10;12.07;;;2.60;99.90;;;;;;5010307;28;20030;-81
2022/01/15 12:47:15;;;;;;;22.67;12.00;;;2.70;99.90;;;;;;4984553;28;20022;-79
2022/01/15 12:49:54;;;;;;;23.02;12.27;;;2.60;99.90;;;;;;4981169;28;20410;-79
2022/01/15 12:52:25;;;;;;;22.30;12.60;;;2.50;99.90;;;;;;5000316;28;20018;-79
2022/01/15 12:54:54;;;;;;;26.30;13.80;;;2.10;99.90;;;;;;4984412;28;20085;-79
2022/01/15 12:57:43;;;;;;;28.40;13.93;;;1.80;99.90;;;;;;4996331;28;20092;-78
2022/01/15 13:00:22;;;;;;;25.30;14.18;;;1.60;99.90;;;;;;4998339;28;20031;-78
2022/01/15 13:02:53;;;;;;;26.88;14.75;;;1.50;99.90;;;;;;4981377;28;20019;-79
2022/01/15 13:05:19;;;;;;;29.63;14.35;;;1.40;99.90;;;;;;4996725;28;20117;-79
2022/01/15 13:07:50;;;;;;;27.80;14.63;;;1.40;99.90;;;;;;4985510;28;20031;-79
2022/01/15 13:10:35;;;;;;;25.65;13.90;;;1.30;99.90;;;;;;4975735;28;20443;-80
2022/01/15 13:13:02;;;;;;;29.02;15.70;;;1.30;99.90;;;;;;4989211;28;20038;-83
2022/01/15 13:15:29;;;;;;;28.75;14.48;;;1.40;99.90;;;;;;4997133;28;20026;-78
2022/01/15 13:17:56;;;;;;;33.03;15.40;;;1.40;99.90;;;;;;5000217;28;20031;-78
2022/01/15 13:20:29;;;;;;;30.45;14.50;;;1.50;99.90;;;;;;4993866;28;20018;-78
2022/01/15 13:22:55;;;;;;;23.63;12.57;;;1.50;99.90;;;;;;4984622;28;20051;-79